Thursday, December 18, 2014
23:05 UTC
  |  Log In   |  Register Free
Airport Search:

Independence Municipal Airport
(KIDP)

FAA data valid effective November 13, 2014 - January 08, 2015 (unless otherwise noted).

 
 
 
 
 
 
 
 
 
 
 
 
 
 

Current Aviation Weather for Independence Municipal Airport (KIDP)

The most recent METAR observation for KIDP was updated at: 2115
METAR Summary (Translated METAR)
KIDP
182055Z AUTO 33006G14KT 10SM OVC009 02/01 A3017 RMK AO2
KCFV
182104Z AUTO 34006KT 10SM SCT009 OVC014 04/02 A3017 RMK AO2 T00390022
(10.6 nm SE from KIDP)
KPPF
182052Z AUTO 32006KT 10SM OVC010 03/02 A3018 RMK AO2 SLP226 T00330022 55008
(16.6 nm NE from KIDP)
TAF
No TAF information found within 50 nm of KIDP
  Airport Weather Conditions for KIDP

 Current Weather at IDP
36° F
Overcast
North winds at 6.9 mph
IDP NOAA Radar

Pressure: 30.17 in
Humidity: 93%
Wind: North at 6.9 MPH (6 KT)
Dew Point: 33.8°F
Visibility: 10.00 mi


Airport Weather Forecast for KIDP

Translated METAR and TAF for KIDP
Translated METAR for KIDP (2306 UTC 18 December 2014)
found at http://aviationweather.gov/adds/metars/
 
METAR text: KIDP 182255Z AUTO 00000KT 10SM OVC011 02/01 A3019 RMK AO2
Conditions at: KIDP (INDEPENDENCE , KS, US) observed 2255 UTC 18 December 2014
Temperature: 2.0°C (36°F)
Dewpoint: 1.0°C (34°F) [RH = 93%]
Pressure (altimeter): 30.19 inches Hg (1022.4 mb)
Winds: calm
Visibility: 10 or more miles (16+ km)
Ceiling: 1100 feet AGL
Clouds: overcast cloud deck at 1100 feet AGL
Weather: automated observation with no human augmentation;
there may or may not be significant weather present at this time
Translated TAF for KIDP

There is no translated TAF available for this airport

Find All Airport Services Find A Hotel Find A Rental Car Find A Golf Course Find A Restaurant $100 Hamburger



FBO's on the Field
FBO Company Facility Photos Services Transportation Aviation Fuel Prices: Prices include tax
Catering Weather Repair Courtesy Rental Type 100LL JetA JetA+ MOGAS 8087
 
City of Independence

This FBO has not yet been rated
FS:Phillips 66
Last Updated: Nov-20
Login to update fuel prices
SS:
Contact City of IndependenceMore FBO Information
 
Add another FBO Facility Photos Catering Weather Repair Courtesy Rental Type 100LL JetA JetA+ MOGAS 8087
Services Transportation Aviation Fuel Prices: Prices include tax


model-print
model-print
model-print
model-print